RZO280 LPPD-GVNP
Flight info
| Callsign | RZO280 |
|---|---|
| Flight time | 2h 3m |
| Altitude | 36000 |
| Route | NADHI DCT 36N025W DCT 33N025W 29N026W/M076F370 DCT PIXED/N0439F380 DCT KEGIL/N0447F390 DCT NCL ENETU1H |
| Aircraft | A320/M-SDE3FGHIRWY/LB1 |
Departure
| Time | 2026-05-08 21:37 |
|---|---|
| Airport | João Paulo II Airport (LPPD) |
Arrival
| Time | 2026-05-08 23:40 |
|---|---|
| Airport | Nelson Mandela International Airport (GVNP) |
| Time | Latitude | Longitude | Altitude | Speed | Heading |
|---|---|---|---|---|---|
| 2026-05-08 20:50 | 37.74894 | -25.71169 | 272 ft | 0 kts | 22° |
| 2026-05-08 21:28 | 37.74880 | -25.71177 | 271 ft | 4 kts | 22° |
| 2026-05-08 21:28 | 37.74856 | -25.71189 | 275 ft | 2 kts | 22° |
| 2026-05-08 21:28 | 37.74839 | -25.71201 | 276 ft | 4 kts | 66° |
| 2026-05-08 21:28 | 37.74839 | -25.71227 | 272 ft | 4 kts | 111° |
| 2026-05-08 21:29 | 37.74844 | -25.71241 | 274 ft | 0 kts | 111° |
| 2026-05-08 21:30 | 37.74842 | -25.71237 | 275 ft | 1 kts | 113° |
| 2026-05-08 21:31 | 37.74832 | -25.71206 | 276 ft | 7 kts | 113° |
| 2026-05-08 21:31 | 37.74806 | -25.71123 | 271 ft | 12 kts | 111° |
| 2026-05-08 21:31 | 37.74769 | -25.71033 | 273 ft | 11 kts | 136° |
| 2026-05-08 21:31 | 37.74694 | -25.71016 | 271 ft | 11 kts | 183° |
| 2026-05-08 21:32 | 37.74615 | -25.71012 | 272 ft | 14 kts | 160° |
| 2026-05-08 21:32 | 37.74548 | -25.70872 | 270 ft | 24 kts | 112° |
| 2026-05-08 21:32 | 37.74469 | -25.70632 | 263 ft | 35 kts | 111° |
| 2026-05-08 21:32 | 37.74368 | -25.70303 | 250 ft | 46 kts | 110° |
| 2026-05-08 21:33 | 37.74247 | -25.69897 | 236 ft | 50 kts | 111° |
| 2026-05-08 21:33 | 37.74122 | -25.69480 | 219 ft | 52 kts | 111° |
| 2026-05-08 21:33 | 37.73987 | -25.69067 | 211 ft | 48 kts | 112° |
| 2026-05-08 21:33 | 37.73888 | -25.68777 | 200 ft | 33 kts | 113° |
| 2026-05-08 21:34 | 37.73834 | -25.68611 | 189 ft | 12 kts | 114° |
| 2026-05-08 21:34 | 37.73773 | -25.68552 | 184 ft | 11 kts | 154° |
| 2026-05-08 21:34 | 37.73741 | -25.68523 | 184 ft | 0 kts | 126° |
| 2026-05-08 21:35 | 37.73740 | -25.68521 | 184 ft | 1 kts | 123° |
| 2026-05-08 21:35 | 37.73737 | -25.68489 | 184 ft | 7 kts | 77° |
| 2026-05-08 21:35 | 37.73786 | -25.68469 | 184 ft | 8 kts | 331° |
| 2026-05-08 21:35 | 37.73805 | -25.68513 | 191 ft | 0 kts | 292° |
| 2026-05-08 21:36 | 37.73807 | -25.68519 | 192 ft | 2 kts | 292° |
| 2026-05-08 21:36 | 37.73811 | -25.68533 | 189 ft | 0 kts | 292° |
| 2026-05-08 21:36 | 37.73827 | -25.68581 | 193 ft | 31 kts | 292° |
| 2026-05-08 21:36 | 37.74000 | -25.69129 | 206 ft | 99 kts | 292° |
| 2026-05-08 21:37 | 37.74308 | -25.70139 | 382 ft | 136 kts | 295° |
| 2026-05-08 21:37 | 37.74641 | -25.71275 | 929 ft | 141 kts | 293° |
| 2026-05-08 21:37 | 37.74885 | -25.72495 | 1527 ft | 152 kts | 269° |
| 2026-05-08 21:37 | 37.74320 | -25.73724 | 2057 ft | 183 kts | 224° |
| 2026-05-08 21:38 | 37.73017 | -25.74180 | 2366 ft | 212 kts | 174° |
| 2026-05-08 21:38 | 37.71538 | -25.73682 | 2683 ft | 229 kts | 158° |
| 2026-05-08 21:38 | 37.70019 | -25.72826 | 2981 ft | 249 kts | 152° |
| 2026-05-08 21:38 | 37.68376 | -25.71811 | 3260 ft | 277 kts | 152° |
| 2026-05-08 21:39 | 37.67200 | -25.71092 | 3626 ft | 287 kts | 153° |
| 2026-05-08 21:39 | 37.65368 | -25.70012 | 4457 ft | 293 kts | 154° |
| 2026-05-08 21:39 | 37.62872 | -25.68604 | 5574 ft | 300 kts | 156° |
| 2026-05-08 21:39 | 37.60943 | -25.67557 | 6423 ft | 304 kts | 157° |
| 2026-05-08 21:40 | 37.58980 | -25.66510 | 7233 ft | 308 kts | 157° |
| 2026-05-08 21:40 | 37.57640 | -25.65799 | 7795 ft | 310 kts | 158° |
| 2026-05-08 21:40 | 37.55632 | -25.64738 | 8590 ft | 315 kts | 158° |
| 2026-05-08 21:41 | 37.51541 | -25.62578 | 10195 ft | 324 kts | 158° |
| 2026-05-08 21:41 | 37.49390 | -25.61442 | 10486 ft | 347 kts | 158° |
| 2026-05-08 21:41 | 37.47094 | -25.60227 | 10739 ft | 368 kts | 158° |
| 2026-05-08 21:41 | 37.44702 | -25.58961 | 11311 ft | 376 kts | 159° |
| 2026-05-08 21:42 | 37.42301 | -25.57689 | 11969 ft | 382 kts | 159° |
| 2026-05-08 21:42 | 37.39803 | -25.56365 | 12671 ft | 387 kts | 159° |
| 2026-05-08 21:42 | 37.37337 | -25.55058 | 13327 ft | 393 kts | 159° |
| 2026-05-08 21:42 | 37.34803 | -25.53713 | 13976 ft | 398 kts | 159° |
| 2026-05-08 21:43 | 37.32242 | -25.52356 | 14575 ft | 402 kts | 159° |
| 2026-05-08 21:43 | 37.29650 | -25.50986 | 15165 ft | 406 kts | 159° |
| 2026-05-08 21:43 | 37.27034 | -25.49603 | 15764 ft | 410 kts | 159° |
| 2026-05-08 21:43 | 37.24392 | -25.48210 | 16359 ft | 414 kts | 159° |
| 2026-05-08 21:44 | 37.21726 | -25.46809 | 16943 ft | 418 kts | 159° |
| 2026-05-08 21:44 | 37.19033 | -25.45391 | 17539 ft | 422 kts | 159° |
| 2026-05-08 21:44 | 37.16317 | -25.43958 | 18112 ft | 425 kts | 159° |
| 2026-05-08 21:44 | 37.13575 | -25.42511 | 18643 ft | 429 kts | 159° |
| 2026-05-08 21:45 | 37.10811 | -25.41054 | 19137 ft | 433 kts | 159° |
| 2026-05-08 21:45 | 37.08016 | -25.39586 | 19628 ft | 438 kts | 160° |
| 2026-05-08 21:45 | 37.05196 | -25.38109 | 20120 ft | 442 kts | 160° |
| 2026-05-08 21:45 | 37.02348 | -25.36620 | 20614 ft | 446 kts | 160° |
| 2026-05-08 21:46 | 36.99473 | -25.35119 | 21108 ft | 450 kts | 160° |
| 2026-05-08 21:46 | 36.96575 | -25.33603 | 21581 ft | 454 kts | 160° |
| 2026-05-08 21:46 | 36.93650 | -25.32073 | 22077 ft | 457 kts | 160° |
| 2026-05-08 21:46 | 36.90701 | -25.30534 | 22525 ft | 461 kts | 160° |
| 2026-05-08 21:47 | 36.87725 | -25.28983 | 22987 ft | 465 kts | 160° |
| 2026-05-08 21:47 | 36.84725 | -25.27416 | 23440 ft | 469 kts | 160° |
| 2026-05-08 21:47 | 36.81698 | -25.25837 | 23838 ft | 473 kts | 160° |
| 2026-05-08 21:47 | 36.78649 | -25.24261 | 24196 ft | 476 kts | 163° |
| 2026-05-08 21:48 | 36.75496 | -25.23051 | 24572 ft | 474 kts | 171° |
| 2026-05-08 21:48 | 36.72285 | -25.22067 | 24943 ft | 476 kts | 171° |
| 2026-05-08 21:48 | 36.69056 | -25.21079 | 25311 ft | 479 kts | 171° |
| 2026-05-08 21:48 | 36.65810 | -25.20086 | 25669 ft | 481 kts | 171° |
| 2026-05-08 21:49 | 36.62549 | -25.19089 | 26012 ft | 484 kts | 171° |
| 2026-05-08 21:49 | 36.59272 | -25.18084 | 26366 ft | 487 kts | 171° |
| 2026-05-08 21:49 | 36.55975 | -25.17071 | 26687 ft | 489 kts | 171° |
| 2026-05-08 21:49 | 36.52669 | -25.16053 | 27069 ft | 490 kts | 171° |
| 2026-05-08 21:50 | 36.49352 | -25.15032 | 27418 ft | 492 kts | 171° |
| 2026-05-08 21:50 | 36.46019 | -25.14008 | 27755 ft | 494 kts | 171° |
| 2026-05-08 21:50 | 36.42677 | -25.12983 | 28086 ft | 496 kts | 172° |
| 2026-05-08 21:50 | 36.39320 | -25.11957 | 28405 ft | 498 kts | 172° |
| 2026-05-08 21:51 | 36.35945 | -25.10930 | 28703 ft | 500 kts | 172° |
| 2026-05-08 21:51 | 36.32563 | -25.09901 | 29034 ft | 502 kts | 172° |
| 2026-05-08 21:51 | 36.29166 | -25.08868 | 29337 ft | 503 kts | 172° |
| 2026-05-08 21:51 | 36.25756 | -25.07830 | 29629 ft | 505 kts | 172° |
| 2026-05-08 21:52 | 36.22334 | -25.06790 | 29907 ft | 507 kts | 172° |
| 2026-05-08 21:52 | 36.18903 | -25.05747 | 30171 ft | 509 kts | 172° |
| 2026-05-08 21:52 | 36.15457 | -25.04698 | 30374 ft | 511 kts | 172° |
| 2026-05-08 21:52 | 36.12052 | -25.03660 | 30642 ft | 510 kts | 172° |
| 2026-05-08 21:53 | 36.08601 | -25.02610 | 30907 ft | 511 kts | 172° |
| 2026-05-08 21:53 | 36.05146 | -25.01560 | 31131 ft | 512 kts | 172° |
| 2026-05-08 21:53 | 36.01634 | -25.00553 | 31377 ft | 509 kts | 176° |
| 2026-05-08 21:53 | 35.98190 | -25.00037 | 31639 ft | 501 kts | 184° |
| 2026-05-08 21:54 | 35.94716 | -24.99990 | 31923 ft | 497 kts | 188° |
| 2026-05-08 21:54 | 35.91268 | -25.00001 | 32219 ft | 495 kts | 187° |
| 2026-05-08 21:54 | 35.87830 | -25.00007 | 32551 ft | 493 kts | 187° |
| 2026-05-08 21:54 | 35.84401 | -25.00011 | 32862 ft | 492 kts | 187° |
| 2026-05-08 21:55 | 35.80984 | -25.00011 | 33169 ft | 491 kts | 187° |
| 2026-05-08 21:55 | 35.77576 | -25.00006 | 33476 ft | 489 kts | 187° |
| 2026-05-08 21:55 | 35.74174 | -24.99999 | 33795 ft | 488 kts | 187° |
| 2026-05-08 21:56 | 35.67399 | -24.99994 | 34340 ft | 486 kts | 187° |
| 2026-05-08 21:56 | 35.64021 | -24.99998 | 34597 ft | 485 kts | 187° |
| 2026-05-08 21:56 | 35.60649 | -25.00003 | 34849 ft | 484 kts | 187° |
| 2026-05-08 21:56 | 35.57287 | -25.00003 | 35096 ft | 483 kts | 187° |
| 2026-05-08 21:57 | 35.53928 | -25.00001 | 35332 ft | 482 kts | 187° |
| 2026-05-08 21:57 | 35.50577 | -24.99997 | 35564 ft | 481 kts | 187° |
| 2026-05-08 21:57 | 35.47231 | -24.99992 | 35764 ft | 480 kts | 187° |
| 2026-05-08 21:57 | 35.43898 | -24.99987 | 36002 ft | 479 kts | 187° |
| 2026-05-08 21:58 | 35.40575 | -24.99986 | 36063 ft | 476 kts | 188° |
| 2026-05-08 21:58 | 35.34009 | -24.99991 | 36086 ft | 474 kts | 188° |
| 2026-05-08 21:59 | 35.27414 | -25.00004 | 36070 ft | 474 kts | 188° |
| 2026-05-08 21:59 | 35.20830 | -25.00003 | 36085 ft | 472 kts | 187° |
| 2026-05-08 22:00 | 35.14258 | -24.99993 | 36084 ft | 472 kts | 187° |
| 2026-05-08 22:00 | 35.07694 | -24.99994 | 36086 ft | 472 kts | 188° |
| 2026-05-08 22:01 | 35.01133 | -25.00000 | 36061 ft | 471 kts | 187° |
| 2026-05-08 22:01 | 34.94578 | -24.99993 | 36075 ft | 471 kts | 187° |
| 2026-05-08 22:02 | 34.88021 | -24.99984 | 36084 ft | 471 kts | 187° |
| 2026-05-08 22:02 | 34.81476 | -24.99989 | 36088 ft | 470 kts | 187° |
| 2026-05-08 22:03 | 34.74931 | -25.00001 | 36073 ft | 470 kts | 187° |
| 2026-05-08 22:03 | 34.61596 | -24.99993 | 36091 ft | 470 kts | 187° |
| 2026-05-08 22:04 | 34.35464 | -24.99995 | 36102 ft | 469 kts | 187° |
| 2026-05-08 22:04 | 34.09399 | -24.99988 | 36111 ft | 467 kts | 187° |
| 2026-05-08 22:05 | 33.83436 | -24.99985 | 36090 ft | 465 kts | 188° |
| 2026-05-08 22:05 | 33.57602 | -24.99997 | 36076 ft | 463 kts | 188° |
| 2026-05-08 22:06 | 33.31843 | -24.99996 | 36102 ft | 463 kts | 188° |
| 2026-05-08 22:06 | 33.06075 | -25.00010 | 36088 ft | 464 kts | 188° |
| 2026-05-08 22:06 | 32.93405 | -25.01209 | 36104 ft | 448 kts | 202° |
| 2026-05-08 22:07 | 32.81367 | -25.04891 | 36207 ft | 449 kts | 204° |
| 2026-05-08 22:07 | 32.56980 | -25.11174 | 36008 ft | 454 kts | 203° |
| 2026-05-08 22:08 | 32.32508 | -25.17484 | 35947 ft | 449 kts | 203° |
| 2026-05-08 22:08 | 32.20339 | -25.20614 | 36073 ft | 445 kts | 204° |
| 2026-05-08 22:08 | 32.08150 | -25.23730 | 36149 ft | 443 kts | 204° |
| 2026-05-08 22:09 | 31.83842 | -25.29936 | 36263 ft | 444 kts | 204° |
| 2026-05-08 22:09 | 31.59548 | -25.36088 | 36149 ft | 450 kts | 204° |
| 2026-05-08 22:09 | 31.47405 | -25.39159 | 36048 ft | 450 kts | 204° |
| 2026-05-08 22:10 | 31.35316 | -25.42220 | 35990 ft | 448 kts | 204° |
| 2026-05-08 22:10 | 31.11156 | -25.48269 | 36098 ft | 438 kts | 204° |
| 2026-05-08 22:10 | 30.99128 | -25.51283 | 36224 ft | 438 kts | 204° |
| 2026-05-08 22:11 | 30.87103 | -25.54279 | 36271 ft | 438 kts | 204° |
| 2026-05-08 22:11 | 30.80641 | -25.55898 | 36069 ft | 443 kts | 204° |
| 2026-05-08 22:11 | 30.77623 | -25.56651 | 36163 ft | 445 kts | 204° |
| 2026-05-08 22:12 | 30.68408 | -25.58942 | 36178 ft | 445 kts | 204° |
| 2026-05-08 22:12 | 30.56322 | -25.61934 | 36179 ft | 443 kts | 204° |
| 2026-05-08 22:13 | 30.44343 | -25.64887 | 36135 ft | 442 kts | 204° |
| 2026-05-08 22:13 | 30.32331 | -25.67842 | 36168 ft | 441 kts | 204° |
| 2026-05-08 22:14 | 30.20349 | -25.70803 | 36142 ft | 440 kts | 204° |
| 2026-05-08 22:14 | 30.08368 | -25.73733 | 36168 ft | 439 kts | 204° |
| 2026-05-08 22:15 | 29.96421 | -25.76657 | 36173 ft | 439 kts | 204° |
| 2026-05-08 22:15 | 29.84475 | -25.79563 | 36165 ft | 438 kts | 204° |
| 2026-05-08 22:16 | 29.72550 | -25.82482 | 36172 ft | 438 kts | 204° |
| 2026-05-08 22:16 | 29.60629 | -25.85371 | 36161 ft | 438 kts | 204° |
| 2026-05-08 22:17 | 29.48714 | -25.88252 | 36172 ft | 437 kts | 204° |
| 2026-05-08 22:17 | 29.36814 | -25.91134 | 36151 ft | 436 kts | 203° |
| 2026-05-08 22:18 | 29.24945 | -25.94011 | 36172 ft | 436 kts | 203° |
| 2026-05-08 22:18 | 29.13075 | -25.96856 | 36136 ft | 435 kts | 203° |
| 2026-05-08 22:19 | 29.01182 | -25.99543 | 36160 ft | 445 kts | 195° |
| 2026-05-08 22:19 | 28.94849 | -25.98944 | 36180 ft | 468 kts | 179° |
| 2026-05-08 22:19 | 28.88451 | -25.97564 | 36185 ft | 467 kts | 180° |
| 2026-05-08 22:20 | 28.75743 | -25.94937 | 36181 ft | 467 kts | 180° |
| 2026-05-08 22:20 | 28.62951 | -25.92272 | 36184 ft | 467 kts | 180° |
| 2026-05-08 22:21 | 28.50155 | -25.89626 | 36174 ft | 467 kts | 180° |
| 2026-05-08 22:21 | 28.37358 | -25.86967 | 36183 ft | 468 kts | 180° |
| 2026-05-08 22:22 | 28.24563 | -25.84319 | 36200 ft | 467 kts | 180° |
| 2026-05-08 22:22 | 28.11783 | -25.81689 | 36202 ft | 466 kts | 180° |
| 2026-05-08 22:23 | 27.99019 | -25.79064 | 36198 ft | 466 kts | 180° |
| 2026-05-08 22:23 | 27.86273 | -25.76457 | 36193 ft | 465 kts | 180° |
| 2026-05-08 22:24 | 27.73523 | -25.73850 | 36178 ft | 465 kts | 180° |
| 2026-05-08 22:24 | 27.60785 | -25.71250 | 36183 ft | 465 kts | 180° |
| 2026-05-08 22:25 | 27.48049 | -25.68645 | 36170 ft | 465 kts | 180° |
| 2026-05-08 22:25 | 27.35313 | -25.66067 | 36181 ft | 465 kts | 180° |
| 2026-05-08 22:26 | 27.22589 | -25.63482 | 36182 ft | 465 kts | 180° |
| 2026-05-08 22:26 | 27.09858 | -25.60910 | 36185 ft | 465 kts | 180° |
| 2026-05-08 22:27 | 26.97133 | -25.58346 | 36166 ft | 465 kts | 179° |
| 2026-05-08 22:27 | 26.86556 | -25.56204 | 36176 ft | 465 kts | 179° |
| 2026-05-08 22:28 | 26.73832 | -25.53665 | 36168 ft | 464 kts | 179° |
| 2026-05-08 22:28 | 26.61117 | -25.51106 | 36179 ft | 464 kts | 179° |
| 2026-05-08 22:29 | 26.46353 | -25.48160 | 36164 ft | 463 kts | 179° |
| 2026-05-08 22:29 | 26.35710 | -25.46032 | 36181 ft | 464 kts | 179° |
| 2026-05-08 22:30 | 26.23002 | -25.43520 | 36169 ft | 463 kts | 179° |
| 2026-05-08 22:30 | 26.10322 | -25.40997 | 36188 ft | 463 kts | 179° |
| 2026-05-08 22:31 | 25.97647 | -25.38473 | 36167 ft | 462 kts | 179° |
| 2026-05-08 22:31 | 25.84980 | -25.35973 | 36190 ft | 462 kts | 179° |
| 2026-05-08 22:32 | 25.72317 | -25.33482 | 36174 ft | 462 kts | 179° |
| 2026-05-08 22:32 | 25.59742 | -25.31002 | 36186 ft | 461 kts | 179° |
| 2026-05-08 22:33 | 25.47094 | -25.28529 | 36189 ft | 461 kts | 179° |
| 2026-05-08 22:33 | 25.34457 | -25.26038 | 36192 ft | 462 kts | 179° |
| 2026-05-08 22:34 | 25.21804 | -25.23560 | 36190 ft | 461 kts | 179° |
| 2026-05-08 22:34 | 25.09178 | -25.21102 | 36178 ft | 461 kts | 179° |
| 2026-05-08 22:35 | 24.97056 | -25.18747 | 36178 ft | 460 kts | 179° |
| 2026-05-08 22:35 | 24.84448 | -25.16287 | 36156 ft | 460 kts | 178° |
| 2026-05-08 22:36 | 24.71857 | -25.13835 | 36170 ft | 459 kts | 178° |
| 2026-05-08 22:36 | 24.59282 | -25.11408 | 36150 ft | 459 kts | 178° |
| 2026-05-08 22:37 | 24.46700 | -25.08980 | 36161 ft | 459 kts | 178° |
| 2026-05-08 22:37 | 24.34123 | -25.06538 | 36142 ft | 459 kts | 178° |
| 2026-05-08 22:38 | 24.21540 | -25.04127 | 36162 ft | 459 kts | 178° |
| 2026-05-08 22:38 | 24.08953 | -25.01722 | 36180 ft | 459 kts | 178° |
| 2026-05-08 22:39 | 23.96393 | -24.99933 | 36161 ft | 448 kts | 187° |
| 2026-05-08 22:39 | 23.83896 | -24.99774 | 36161 ft | 449 kts | 187° |
| 2026-05-08 22:40 | 23.71406 | -24.99589 | 36153 ft | 449 kts | 186° |
| 2026-05-08 22:40 | 23.58907 | -24.99408 | 36158 ft | 449 kts | 186° |
| 2026-05-08 22:41 | 23.47136 | -24.99241 | 36142 ft | 449 kts | 186° |
| 2026-05-08 22:41 | 23.34634 | -24.99072 | 36151 ft | 449 kts | 186° |
| 2026-05-08 22:42 | 23.22128 | -24.98892 | 36154 ft | 449 kts | 186° |
| 2026-05-08 22:42 | 23.09618 | -24.98719 | 36139 ft | 450 kts | 186° |
| 2026-05-08 22:43 | 22.97101 | -24.98546 | 36146 ft | 450 kts | 186° |
| 2026-05-08 22:43 | 22.84573 | -24.98380 | 36142 ft | 450 kts | 186° |
| 2026-05-08 22:44 | 22.72043 | -24.98179 | 36145 ft | 450 kts | 186° |
| 2026-05-08 22:44 | 22.59602 | -24.98024 | 36150 ft | 450 kts | 186° |
| 2026-05-08 22:45 | 22.47077 | -24.97848 | 36148 ft | 450 kts | 186° |
| 2026-05-08 22:45 | 22.34545 | -24.97666 | 36148 ft | 450 kts | 186° |
| 2026-05-08 22:46 | 22.22001 | -24.97499 | 36132 ft | 451 kts | 185° |
| 2026-05-08 22:46 | 22.09458 | -24.97325 | 36140 ft | 451 kts | 185° |
| 2026-05-08 22:47 | 21.96896 | -24.97155 | 36131 ft | 451 kts | 185° |
| 2026-05-08 22:47 | 21.84319 | -24.96975 | 36138 ft | 452 kts | 185° |
| 2026-05-08 22:48 | 21.71748 | -24.96806 | 36125 ft | 452 kts | 185° |
| 2026-05-08 22:48 | 21.59176 | -24.96643 | 36134 ft | 452 kts | 185° |
| 2026-05-08 22:49 | 21.46580 | -24.96463 | 36139 ft | 453 kts | 185° |
| 2026-05-08 22:49 | 21.27760 | -24.96206 | 36135 ft | 453 kts | 184° |
| 2026-05-08 22:50 | 21.15133 | -24.96031 | 36141 ft | 454 kts | 184° |
| 2026-05-08 22:50 | 21.03422 | -24.95872 | 36131 ft | 454 kts | 184° |
| 2026-05-08 22:51 | 20.90802 | -24.95700 | 36133 ft | 453 kts | 184° |
| 2026-05-08 22:51 | 20.78187 | -24.95530 | 36115 ft | 453 kts | 184° |
| 2026-05-08 22:52 | 20.65572 | -24.95358 | 36116 ft | 453 kts | 184° |
| 2026-05-08 22:52 | 20.52948 | -24.95198 | 36107 ft | 454 kts | 184° |
| 2026-05-08 22:53 | 20.40294 | -24.94999 | 36127 ft | 455 kts | 184° |
| 2026-05-08 22:53 | 20.27632 | -24.94843 | 36135 ft | 455 kts | 184° |
| 2026-05-08 22:54 | 20.14950 | -24.94669 | 36120 ft | 456 kts | 183° |
| 2026-05-08 22:54 | 20.02249 | -24.94495 | 36130 ft | 456 kts | 183° |
| 2026-05-08 22:55 | 19.89544 | -24.94318 | 36127 ft | 456 kts | 183° |
| 2026-05-08 22:55 | 19.76848 | -24.94158 | 36124 ft | 456 kts | 183° |
| 2026-05-08 22:56 | 19.64149 | -24.93999 | 36126 ft | 456 kts | 183° |
| 2026-05-08 22:56 | 19.51462 | -24.93816 | 36125 ft | 456 kts | 183° |
| 2026-05-08 22:57 | 19.38770 | -24.93644 | 36123 ft | 456 kts | 183° |
| 2026-05-08 22:57 | 19.26080 | -24.93476 | 36114 ft | 456 kts | 182° |
| 2026-05-08 22:58 | 19.13389 | -24.93316 | 36116 ft | 456 kts | 182° |
| 2026-05-08 22:58 | 19.00688 | -24.93162 | 36112 ft | 456 kts | 182° |
| 2026-05-08 22:59 | 18.87988 | -24.92968 | 36120 ft | 456 kts | 182° |
| 2026-05-08 22:59 | 18.75282 | -24.92800 | 36125 ft | 457 kts | 182° |
| 2026-05-08 23:00 | 18.63315 | -24.92647 | 36115 ft | 457 kts | 182° |
| 2026-05-08 23:00 | 18.50827 | -24.92483 | 36118 ft | 456 kts | 182° |
| 2026-05-08 23:01 | 18.38105 | -24.92311 | 36115 ft | 457 kts | 182° |
| 2026-05-08 23:01 | 18.25398 | -24.92159 | 36115 ft | 456 kts | 182° |
| 2026-05-08 23:02 | 18.12780 | -24.90825 | 36104 ft | 463 kts | 162° |
| 2026-05-08 23:02 | 18.05743 | -24.87952 | 36104 ft | 464 kts | 161° |
| 2026-05-08 23:03 | 17.99717 | -24.85540 | 36105 ft | 463 kts | 161° |
| 2026-05-08 23:03 | 17.93688 | -24.83132 | 36105 ft | 463 kts | 161° |
| 2026-05-08 23:04 | 17.87667 | -24.80712 | 36106 ft | 463 kts | 161° |
| 2026-05-08 23:04 | 17.81684 | -24.78309 | 36109 ft | 463 kts | 161° |
| 2026-05-08 23:05 | 17.75662 | -24.75891 | 36109 ft | 463 kts | 161° |
| 2026-05-08 23:05 | 17.69635 | -24.73478 | 36110 ft | 463 kts | 161° |
| 2026-05-08 23:06 | 17.63615 | -24.71063 | 36120 ft | 463 kts | 161° |
| 2026-05-08 23:06 | 17.57592 | -24.68644 | 36112 ft | 463 kts | 161° |
| 2026-05-08 23:07 | 17.51572 | -24.66229 | 36104 ft | 463 kts | 161° |
| 2026-05-08 23:07 | 17.45549 | -24.63823 | 36099 ft | 463 kts | 161° |
| 2026-05-08 23:08 | 17.39569 | -24.61439 | 36110 ft | 463 kts | 161° |
| 2026-05-08 23:08 | 17.33554 | -24.59033 | 36107 ft | 463 kts | 161° |
| 2026-05-08 23:09 | 17.27538 | -24.56629 | 36099 ft | 463 kts | 161° |
| 2026-05-08 23:09 | 17.21517 | -24.54227 | 36099 ft | 463 kts | 161° |
| 2026-05-08 23:10 | 17.15501 | -24.51841 | 36091 ft | 463 kts | 161° |
| 2026-05-08 23:10 | 17.09487 | -24.49441 | 36092 ft | 463 kts | 161° |
| 2026-05-08 23:11 | 17.03468 | -24.47046 | 36096 ft | 463 kts | 161° |
| 2026-05-08 23:11 | 16.97451 | -24.44652 | 36070 ft | 463 kts | 161° |
| 2026-05-08 23:12 | 16.91425 | -24.42253 | 36077 ft | 463 kts | 161° |
| 2026-05-08 23:12 | 16.85399 | -24.39862 | 36073 ft | 463 kts | 161° |
| 2026-05-08 23:13 | 16.79373 | -24.37474 | 36084 ft | 463 kts | 161° |
| 2026-05-08 23:13 | 16.73340 | -24.35081 | 36083 ft | 464 kts | 161° |
| 2026-05-08 23:14 | 16.67347 | -24.32702 | 36086 ft | 464 kts | 161° |
| 2026-05-08 23:14 | 16.61315 | -24.30318 | 36086 ft | 464 kts | 161° |
| 2026-05-08 23:15 | 16.55280 | -24.27930 | 36087 ft | 464 kts | 160° |
| 2026-05-08 23:15 | 16.50262 | -24.25817 | 36097 ft | 464 kts | 159° |
| 2026-05-08 23:16 | 16.44347 | -24.23204 | 36095 ft | 465 kts | 159° |
| 2026-05-08 23:16 | 16.38398 | -24.20581 | 36093 ft | 464 kts | 159° |
| 2026-05-08 23:17 | 16.32438 | -24.17993 | 36096 ft | 464 kts | 159° |
| 2026-05-08 23:17 | 16.26475 | -24.15430 | 36082 ft | 464 kts | 159° |
| 2026-05-08 23:18 | 16.20495 | -24.12859 | 35820 ft | 466 kts | 159° |
| 2026-05-08 23:18 | 16.17506 | -24.11572 | 35582 ft | 465 kts | 159° |
| 2026-05-08 23:18 | 16.14510 | -24.10280 | 35345 ft | 465 kts | 159° |
| 2026-05-08 23:19 | 16.11522 | -24.08987 | 35110 ft | 465 kts | 159° |
| 2026-05-08 23:19 | 16.08539 | -24.07695 | 34879 ft | 465 kts | 159° |
| 2026-05-08 23:19 | 16.05544 | -24.06403 | 34650 ft | 466 kts | 159° |
| 2026-05-08 23:19 | 16.02548 | -24.05114 | 34381 ft | 467 kts | 159° |
| 2026-05-08 23:20 | 15.99529 | -24.03819 | 33426 ft | 472 kts | 160° |
| 2026-05-08 23:20 | 15.96512 | -24.02524 | 32883 ft | 466 kts | 159° |
| 2026-05-08 23:20 | 15.93523 | -24.01238 | 32254 ft | 463 kts | 159° |
| 2026-05-08 23:20 | 15.90560 | -23.99961 | 31637 ft | 460 kts | 158° |
| 2026-05-08 23:21 | 15.87618 | -23.98691 | 31017 ft | 457 kts | 159° |
| 2026-05-08 23:21 | 15.84692 | -23.97431 | 30417 ft | 454 kts | 159° |
| 2026-05-08 23:21 | 15.81777 | -23.96177 | 29756 ft | 452 kts | 158° |
| 2026-05-08 23:21 | 15.78885 | -23.94934 | 29165 ft | 448 kts | 159° |
| 2026-05-08 23:22 | 15.76018 | -23.93704 | 28575 ft | 443 kts | 159° |
| 2026-05-08 23:22 | 15.73181 | -23.92488 | 27991 ft | 439 kts | 158° |
| 2026-05-08 23:22 | 15.70364 | -23.91279 | 27431 ft | 435 kts | 158° |
| 2026-05-08 23:22 | 15.67581 | -23.90085 | 26878 ft | 431 kts | 158° |
| 2026-05-08 23:23 | 15.64824 | -23.88903 | 26340 ft | 427 kts | 158° |
| 2026-05-08 23:23 | 15.62089 | -23.87731 | 25822 ft | 423 kts | 158° |
| 2026-05-08 23:23 | 15.59385 | -23.86573 | 25325 ft | 419 kts | 158° |
| 2026-05-08 23:23 | 15.56704 | -23.85424 | 24831 ft | 415 kts | 158° |
| 2026-05-08 23:24 | 15.54065 | -23.84242 | 24332 ft | 412 kts | 152° |
| 2026-05-08 23:24 | 15.51665 | -23.82652 | 23836 ft | 408 kts | 141° |
| 2026-05-08 23:24 | 15.49630 | -23.80619 | 23256 ft | 406 kts | 130° |
| 2026-05-08 23:24 | 15.47825 | -23.78385 | 22733 ft | 402 kts | 130° |
| 2026-05-08 23:25 | 15.46029 | -23.76175 | 22215 ft | 399 kts | 130° |
| 2026-05-08 23:25 | 15.44240 | -23.73988 | 21687 ft | 396 kts | 131° |
| 2026-05-08 23:25 | 15.42459 | -23.71815 | 21163 ft | 394 kts | 131° |
| 2026-05-08 23:25 | 15.40719 | -23.69688 | 20641 ft | 392 kts | 131° |
| 2026-05-08 23:26 | 15.38961 | -23.67535 | 20107 ft | 390 kts | 131° |
| 2026-05-08 23:26 | 15.37213 | -23.65389 | 19584 ft | 388 kts | 132° |
| 2026-05-08 23:26 | 15.35476 | -23.63256 | 19063 ft | 387 kts | 131° |
| 2026-05-08 23:26 | 15.33743 | -23.61130 | 18559 ft | 385 kts | 132° |
| 2026-05-08 23:27 | 15.32023 | -23.59024 | 18015 ft | 383 kts | 132° |
| 2026-05-08 23:27 | 15.30316 | -23.56937 | 17596 ft | 376 kts | 133° |
| 2026-05-08 23:27 | 15.28623 | -23.54869 | 17053 ft | 374 kts | 132° |
| 2026-05-08 23:27 | 15.26796 | -23.52987 | 16533 ft | 369 kts | 146° |
| 2026-05-08 23:28 | 15.24568 | -23.51761 | 16049 ft | 362 kts | 162° |
| 2026-05-08 23:28 | 15.22122 | -23.51292 | 15573 ft | 357 kts | 179° |
| 2026-05-08 23:28 | 15.19679 | -23.51594 | 15128 ft | 352 kts | 195° |
| 2026-05-08 23:28 | 15.17355 | -23.52384 | 14615 ft | 351 kts | 198° |
| 2026-05-08 23:29 | 15.15047 | -23.53200 | 14126 ft | 350 kts | 198° |
| 2026-05-08 23:29 | 15.12757 | -23.54009 | 13720 ft | 345 kts | 198° |
| 2026-05-08 23:29 | 15.10481 | -23.54812 | 13210 ft | 343 kts | 198° |
| 2026-05-08 23:29 | 15.08227 | -23.55608 | 12542 ft | 345 kts | 198° |
| 2026-05-08 23:30 | 15.05972 | -23.56403 | 12143 ft | 340 kts | 198° |
| 2026-05-08 23:30 | 15.03743 | -23.57189 | 11668 ft | 337 kts | 198° |
| 2026-05-08 23:30 | 15.01535 | -23.57962 | 11204 ft | 333 kts | 197° |
| 2026-05-08 23:30 | 14.99368 | -23.58719 | 11000 ft | 322 kts | 198° |
| 2026-05-08 23:31 | 14.97289 | -23.59447 | 10878 ft | 310 kts | 198° |
| 2026-05-08 23:31 | 14.95286 | -23.60152 | 10744 ft | 298 kts | 198° |
| 2026-05-08 23:31 | 14.93342 | -23.60837 | 10457 ft | 294 kts | 198° |
| 2026-05-08 23:31 | 14.91417 | -23.61514 | 10129 ft | 291 kts | 198° |
| 2026-05-08 23:32 | 14.89499 | -23.62186 | 9722 ft | 290 kts | 198° |
| 2026-05-08 23:32 | 14.87587 | -23.62854 | 9275 ft | 290 kts | 198° |
| 2026-05-08 23:32 | 14.85684 | -23.63529 | 8776 ft | 285 kts | 199° |
| 2026-05-08 23:32 | 14.83849 | -23.64192 | 8138 ft | 281 kts | 199° |
| 2026-05-08 23:33 | 14.82006 | -23.64851 | 7456 ft | 279 kts | 199° |
| 2026-05-08 23:33 | 14.80168 | -23.65499 | 6765 ft | 279 kts | 199° |
| 2026-05-08 23:33 | 14.78316 | -23.66120 | 6157 ft | 281 kts | 194° |
| 2026-05-08 23:33 | 14.76386 | -23.66231 | 5829 ft | 276 kts | 170° |
| 2026-05-08 23:34 | 14.74636 | -23.65587 | 5709 ft | 261 kts | 147° |
| 2026-05-08 23:34 | 14.73327 | -23.64378 | 5587 ft | 247 kts | 124° |
| 2026-05-08 23:34 | 14.72570 | -23.62840 | 5419 ft | 236 kts | 104° |
| 2026-05-08 23:34 | 14.72382 | -23.61186 | 5132 ft | 230 kts | 83° |
| 2026-05-08 23:35 | 14.72737 | -23.59599 | 4819 ft | 226 kts | 64° |
| 2026-05-08 23:35 | 14.73566 | -23.58249 | 4510 ft | 222 kts | 46° |
| 2026-05-08 23:35 | 14.74589 | -23.57063 | 4291 ft | 222 kts | 46° |
| 2026-05-08 23:35 | 14.75558 | -23.56222 | 4222 ft | 219 kts | 28° |
| 2026-05-08 23:36 | 14.75833 | -23.56071 | 4158 ft | 219 kts | 24° |
| 2026-05-08 23:36 | 14.77249 | -23.55493 | 3713 ft | 219 kts | 20° |
| 2026-05-08 23:36 | 14.78653 | -23.54913 | 3435 ft | 217 kts | 21° |
| 2026-05-08 23:36 | 14.80028 | -23.54338 | 3131 ft | 209 kts | 21° |
| 2026-05-08 23:37 | 14.81345 | -23.53786 | 2851 ft | 199 kts | 21° |
| 2026-05-08 23:37 | 14.82601 | -23.53262 | 2621 ft | 190 kts | 22° |
| 2026-05-08 23:37 | 14.83783 | -23.52769 | 2339 ft | 176 kts | 21° |
| 2026-05-08 23:37 | 14.84861 | -23.52320 | 2104 ft | 157 kts | 22° |
| 2026-05-08 23:38 | 14.85832 | -23.51917 | 1912 ft | 144 kts | 24° |
| 2026-05-08 23:38 | 14.86723 | -23.51547 | 1745 ft | 133 kts | 23° |
| 2026-05-08 23:38 | 14.87561 | -23.51199 | 1567 ft | 128 kts | 22° |
| 2026-05-08 23:38 | 14.88377 | -23.50859 | 1403 ft | 125 kts | 24° |
| 2026-05-08 23:39 | 14.89192 | -23.50521 | 1232 ft | 126 kts | 24° |
| 2026-05-08 23:39 | 14.90000 | -23.50185 | 1089 ft | 125 kts | 21° |
| 2026-05-08 23:39 | 14.90808 | -23.49849 | 922 ft | 127 kts | 24° |
| 2026-05-08 23:39 | 14.91634 | -23.49500 | 713 ft | 130 kts | 22° |
| 2026-05-08 23:40 | 14.92453 | -23.49157 | 533 ft | 126 kts | 19° |
| 2026-05-08 23:40 | 14.93256 | -23.48827 | 409 ft | 123 kts | 23° |
| 2026-05-08 23:40 | 14.94033 | -23.48500 | 349 ft | 109 kts | 22° |
| 2026-05-08 23:40 | 14.94463 | -23.48325 | 346 ft | 23 kts | 21° |
| 2026-05-08 23:41 | 14.94534 | -23.48323 | 350 ft | 10 kts | 333° |
| 2026-05-08 23:41 | 14.94569 | -23.48379 | 350 ft | 9 kts | 293° |
| 2026-05-08 23:41 | 14.94575 | -23.48445 | 349 ft | 11 kts | 243° |
| 2026-05-08 23:41 | 14.94515 | -23.48480 | 349 ft | 10 kts | 202° |
| 2026-05-08 23:42 | 14.94457 | -23.48504 | 346 ft | 8 kts | 201° |
| 2026-05-08 23:42 | 14.94411 | -23.48532 | 337 ft | 5 kts | 263° |
| 2026-05-08 23:42 | 14.94428 | -23.48561 | 335 ft | 6 kts | 291° |
| 2026-05-08 23:42 | 14.94436 | -23.48583 | 338 ft | 0 kts | 291° |